GAF250 ETAR-BIRK
Flight info
| Callsign | GAF250 |
|---|---|
| Flight time | 4h 43m |
| Altitude | 38000 |
| Route | LIMGO DCT NASBU |
| Aircraft | A321/M-SDE3FGHIRWY/LB1 |
Departure
| Time | 2026-05-05 05:57 |
|---|---|
| Airport | Ramstein Air Base (ETAR) |
Arrival
| Time | 2026-05-05 10:41 |
|---|---|
| Airport | Reykjavík Domestic Airport (BIRK) |
| Time | Latitude | Longitude | Altitude | Speed | Heading |
|---|---|---|---|---|---|
| 2026-05-05 05:36 | 49.43954 | 7.58188 | 776 ft | 0 kts | 144° |
| 2026-05-05 05:53 | 49.43953 | 7.58189 | 776 ft | 1 kts | 144° |
| 2026-05-05 05:53 | 49.43944 | 7.58204 | 776 ft | 3 kts | 124° |
| 2026-05-05 05:53 | 49.43931 | 7.58241 | 776 ft | 5 kts | 122° |
| 2026-05-05 05:54 | 49.43899 | 7.58284 | 776 ft | 7 kts | 141° |
| 2026-05-05 05:54 | 49.43850 | 7.58341 | 777 ft | 10 kts | 147° |
| 2026-05-05 05:54 | 49.43776 | 7.58362 | 777 ft | 12 kts | 175° |
| 2026-05-05 05:54 | 49.43680 | 7.58375 | 777 ft | 15 kts | 175° |
| 2026-05-05 05:55 | 49.43564 | 7.58382 | 776 ft | 18 kts | 176° |
| 2026-05-05 05:55 | 49.43428 | 7.58396 | 775 ft | 21 kts | 176° |
| 2026-05-05 05:55 | 49.43303 | 7.58358 | 773 ft | 16 kts | 241° |
| 2026-05-05 05:55 | 49.43286 | 7.58181 | 772 ft | 18 kts | 266° |
| 2026-05-05 05:56 | 49.43280 | 7.57979 | 774 ft | 19 kts | 274° |
| 2026-05-05 05:56 | 49.43267 | 7.57946 | 774 ft | 1 kts | 145° |
| 2026-05-05 05:56 | 49.43267 | 7.57981 | 774 ft | 7 kts | 79° |
| 2026-05-05 05:56 | 49.43284 | 7.58188 | 772 ft | 53 kts | 83° |
| 2026-05-05 05:57 | 49.43381 | 7.59307 | 785 ft | 153 kts | 82° |
| 2026-05-05 05:57 | 49.43525 | 7.61127 | 1401 ft | 190 kts | 84° |
| 2026-05-05 05:57 | 49.43636 | 7.63254 | 2443 ft | 204 kts | 86° |
| 2026-05-05 05:57 | 49.43723 | 7.65543 | 3223 ft | 223 kts | 87° |
| 2026-05-05 05:58 | 49.44103 | 7.67966 | 3610 ft | 249 kts | 59° |
| 2026-05-05 05:58 | 49.45412 | 7.69791 | 4217 ft | 268 kts | 28° |
| 2026-05-05 05:58 | 49.47154 | 7.70904 | 5089 ft | 275 kts | 23° |
| 2026-05-05 05:58 | 49.48745 | 7.72548 | 5945 ft | 280 kts | 50° |
| 2026-05-05 05:59 | 49.49854 | 7.75026 | 6829 ft | 283 kts | 63° |
| 2026-05-05 05:59 | 49.50821 | 7.77688 | 7743 ft | 287 kts | 62° |
| 2026-05-05 05:59 | 49.51810 | 7.80385 | 8643 ft | 291 kts | 61° |
| 2026-05-05 05:59 | 49.52816 | 7.83121 | 9568 ft | 296 kts | 61° |
| 2026-05-05 06:00 | 49.53821 | 7.85945 | 10249 ft | 309 kts | 67° |
| 2026-05-05 06:00 | 49.54235 | 7.89258 | 10538 ft | 329 kts | 94° |
| 2026-05-05 06:00 | 49.53730 | 7.92716 | 10854 ft | 344 kts | 115° |
| 2026-05-05 06:00 | 49.52462 | 7.95868 | 11488 ft | 348 kts | 133° |
| 2026-05-05 06:01 | 49.50633 | 7.98288 | 12237 ft | 349 kts | 150° |
| 2026-05-05 06:01 | 49.48506 | 8.00111 | 13005 ft | 351 kts | 154° |
| 2026-05-05 06:01 | 49.46338 | 8.01891 | 13784 ft | 355 kts | 154° |
| 2026-05-05 06:01 | 49.44216 | 8.03871 | 14489 ft | 359 kts | 148° |
| 2026-05-05 06:02 | 49.42132 | 8.06022 | 15204 ft | 361 kts | 148° |
| 2026-05-05 06:02 | 49.39996 | 8.08069 | 15893 ft | 362 kts | 156° |
| 2026-05-05 06:02 | 49.37609 | 8.09248 | 16555 ft | 362 kts | 173° |
| 2026-05-05 06:02 | 49.35093 | 8.09310 | 17230 ft | 363 kts | 189° |
| 2026-05-05 06:03 | 49.32673 | 8.08230 | 17909 ft | 365 kts | 205° |
| 2026-05-05 06:03 | 49.30544 | 8.06099 | 18513 ft | 369 kts | 221° |
| 2026-05-05 06:03 | 49.28891 | 8.03070 | 19076 ft | 375 kts | 237° |
| 2026-05-05 06:03 | 49.27878 | 7.99370 | 19642 ft | 382 kts | 254° |
| 2026-05-05 06:04 | 49.27470 | 7.95327 | 20204 ft | 387 kts | 260° |
| 2026-05-05 06:04 | 49.27127 | 7.91226 | 20792 ft | 389 kts | 260° |
| 2026-05-05 06:04 | 49.26781 | 7.87106 | 21376 ft | 391 kts | 260° |
| 2026-05-05 06:04 | 49.26433 | 7.82961 | 21937 ft | 394 kts | 260° |
| 2026-05-05 06:05 | 49.26084 | 7.78794 | 22496 ft | 397 kts | 261° |
| 2026-05-05 06:05 | 49.25732 | 7.74576 | 22993 ft | 401 kts | 261° |
| 2026-05-05 06:05 | 49.25375 | 7.70334 | 23520 ft | 404 kts | 261° |
| 2026-05-05 06:05 | 49.25011 | 7.66050 | 23985 ft | 406 kts | 261° |
| 2026-05-05 06:06 | 49.24643 | 7.61752 | 24467 ft | 408 kts | 260° |
| 2026-05-05 06:06 | 49.24274 | 7.57485 | 24935 ft | 410 kts | 260° |
| 2026-05-05 06:06 | 49.23894 | 7.53091 | 25431 ft | 412 kts | 260° |
| 2026-05-05 06:06 | 49.23594 | 7.48772 | 25906 ft | 415 kts | 265° |
| 2026-05-05 06:07 | 49.23750 | 7.44328 | 26352 ft | 422 kts | 275° |
| 2026-05-05 06:07 | 49.24453 | 7.39942 | 26781 ft | 429 kts | 286° |
| 2026-05-05 06:07 | 49.25702 | 7.35766 | 27215 ft | 436 kts | 296° |
| 2026-05-05 06:07 | 49.27403 | 7.31865 | 27656 ft | 441 kts | 301° |
| 2026-05-05 06:08 | 49.29164 | 7.27998 | 28100 ft | 444 kts | 301° |
| 2026-05-05 06:08 | 49.30935 | 7.24107 | 28534 ft | 446 kts | 301° |
| 2026-05-05 06:08 | 49.32707 | 7.20193 | 28973 ft | 448 kts | 300° |
| 2026-05-05 06:08 | 49.34482 | 7.16244 | 29382 ft | 451 kts | 300° |
| 2026-05-05 06:09 | 49.36290 | 7.12292 | 29788 ft | 454 kts | 303° |
| 2026-05-05 06:09 | 49.38405 | 7.08646 | 30166 ft | 461 kts | 311° |
| 2026-05-05 06:09 | 49.40870 | 7.05461 | 30466 ft | 467 kts | 317° |
| 2026-05-05 06:09 | 49.43271 | 7.02160 | 30827 ft | 460 kts | 307° |
| 2026-05-05 06:10 | 49.45222 | 6.98324 | 31236 ft | 452 kts | 298° |
| 2026-05-05 06:10 | 49.46733 | 6.94200 | 31647 ft | 446 kts | 290° |
| 2026-05-05 06:10 | 49.47891 | 6.89823 | 32059 ft | 439 kts | 283° |
| 2026-05-05 06:10 | 49.48863 | 6.85376 | 32505 ft | 438 kts | 283° |
| 2026-05-05 06:11 | 49.49843 | 6.80945 | 32958 ft | 437 kts | 283° |
| 2026-05-05 06:11 | 49.50822 | 6.76534 | 33410 ft | 435 kts | 283° |
| 2026-05-05 06:11 | 49.51792 | 6.72136 | 33881 ft | 433 kts | 282° |
| 2026-05-05 06:11 | 49.52752 | 6.67748 | 34265 ft | 432 kts | 282° |
| 2026-05-05 06:12 | 49.53702 | 6.63367 | 34594 ft | 432 kts | 282° |
| 2026-05-05 06:12 | 49.54651 | 6.58971 | 34897 ft | 433 kts | 282° |
| 2026-05-05 06:12 | 49.55600 | 6.54564 | 35174 ft | 434 kts | 282° |
| 2026-05-05 06:12 | 49.56550 | 6.50157 | 35488 ft | 434 kts | 283° |
| 2026-05-05 06:13 | 49.57657 | 6.45805 | 35845 ft | 439 kts | 290° |
| 2026-05-05 06:13 | 49.59083 | 6.41621 | 36153 ft | 441 kts | 292° |
| 2026-05-05 06:13 | 49.60528 | 6.37448 | 36441 ft | 441 kts | 292° |
| 2026-05-05 06:13 | 49.61992 | 6.33279 | 36723 ft | 444 kts | 296° |
| 2026-05-05 06:14 | 49.63783 | 6.29363 | 37006 ft | 451 kts | 305° |
| 2026-05-05 06:14 | 49.65993 | 6.25897 | 37284 ft | 457 kts | 315° |
| 2026-05-05 06:14 | 49.68523 | 6.22989 | 37544 ft | 461 kts | 321° |
| 2026-05-05 06:14 | 49.71156 | 6.20177 | 37804 ft | 461 kts | 321° |
| 2026-05-05 06:15 | 49.76413 | 6.14512 | 37886 ft | 460 kts | 321° |
| 2026-05-05 06:15 | 49.81654 | 6.08822 | 37895 ft | 459 kts | 321° |
| 2026-05-05 06:16 | 49.86866 | 6.03144 | 37889 ft | 457 kts | 320° |
| 2026-05-05 06:16 | 49.92064 | 5.97467 | 37890 ft | 457 kts | 320° |
| 2026-05-05 06:17 | 49.97264 | 5.91781 | 37897 ft | 457 kts | 321° |
| 2026-05-05 06:17 | 50.02470 | 5.86073 | 37897 ft | 458 kts | 321° |
| 2026-05-05 06:18 | 50.07687 | 5.80342 | 37913 ft | 459 kts | 321° |
| 2026-05-05 06:18 | 50.12878 | 5.74644 | 37919 ft | 459 kts | 321° |
| 2026-05-05 06:19 | 50.18094 | 5.68894 | 37917 ft | 459 kts | 320° |
| 2026-05-05 06:19 | 50.23308 | 5.63104 | 37919 ft | 459 kts | 320° |
| 2026-05-05 06:20 | 50.28512 | 5.57318 | 37918 ft | 459 kts | 320° |
| 2026-05-05 06:20 | 50.33712 | 5.51531 | 37934 ft | 458 kts | 321° |
| 2026-05-05 06:21 | 50.38898 | 5.45737 | 37937 ft | 457 kts | 321° |
| 2026-05-05 06:21 | 50.44074 | 5.39942 | 37932 ft | 457 kts | 321° |
| 2026-05-05 06:22 | 50.49251 | 5.34132 | 37935 ft | 457 kts | 321° |
| 2026-05-05 06:22 | 50.54418 | 5.28309 | 37940 ft | 457 kts | 320° |
| 2026-05-05 06:23 | 50.59547 | 5.22525 | 37946 ft | 456 kts | 321° |
| 2026-05-05 06:23 | 50.64699 | 5.16697 | 37947 ft | 456 kts | 320° |
| 2026-05-05 06:24 | 50.69872 | 5.10819 | 37954 ft | 455 kts | 320° |
| 2026-05-05 06:24 | 50.74978 | 5.05009 | 37938 ft | 455 kts | 320° |
| 2026-05-05 06:25 | 50.80106 | 4.99154 | 37948 ft | 455 kts | 320° |
| 2026-05-05 06:25 | 50.85224 | 4.93284 | 37941 ft | 454 kts | 320° |
| 2026-05-05 06:26 | 50.90333 | 4.87424 | 37943 ft | 453 kts | 320° |
| 2026-05-05 06:26 | 50.95445 | 4.81547 | 37942 ft | 454 kts | 320° |
| 2026-05-05 06:27 | 51.03105 | 4.72707 | 37946 ft | 454 kts | 320° |
| 2026-05-05 06:28 | 51.08201 | 4.66799 | 37974 ft | 453 kts | 320° |
| 2026-05-05 06:28 | 51.13291 | 4.60865 | 37972 ft | 453 kts | 320° |
| 2026-05-05 06:29 | 51.17520 | 4.55934 | 37971 ft | 453 kts | 320° |
| 2026-05-05 06:29 | 51.22607 | 4.49994 | 37975 ft | 453 kts | 320° |
| 2026-05-05 06:30 | 51.28511 | 4.43074 | 37968 ft | 452 kts | 320° |
| 2026-05-05 06:30 | 51.33579 | 4.37126 | 37972 ft | 452 kts | 320° |
| 2026-05-05 06:31 | 51.37785 | 4.32178 | 37970 ft | 451 kts | 320° |
| 2026-05-05 06:31 | 51.42843 | 4.26209 | 37967 ft | 451 kts | 320° |
| 2026-05-05 06:32 | 51.47888 | 4.20226 | 37970 ft | 451 kts | 320° |
| 2026-05-05 06:32 | 51.52934 | 4.14218 | 37978 ft | 451 kts | 320° |
| 2026-05-05 06:33 | 51.57965 | 4.08211 | 37978 ft | 450 kts | 320° |
| 2026-05-05 06:33 | 51.62994 | 4.02204 | 37971 ft | 450 kts | 320° |
| 2026-05-05 06:34 | 51.68019 | 3.96193 | 37975 ft | 450 kts | 320° |
| 2026-05-05 06:34 | 51.73042 | 3.90160 | 37973 ft | 450 kts | 320° |
| 2026-05-05 06:35 | 51.78055 | 3.84116 | 37990 ft | 449 kts | 320° |
| 2026-05-05 06:35 | 51.83062 | 3.78074 | 37987 ft | 449 kts | 320° |
| 2026-05-05 06:36 | 51.88057 | 3.72035 | 37995 ft | 448 kts | 320° |
| 2026-05-05 06:36 | 51.93002 | 3.66017 | 37993 ft | 448 kts | 320° |
| 2026-05-05 06:37 | 51.97975 | 3.59950 | 37994 ft | 447 kts | 320° |
| 2026-05-05 06:37 | 52.02949 | 3.53877 | 38003 ft | 447 kts | 320° |
| 2026-05-05 06:38 | 52.07910 | 3.47795 | 38009 ft | 446 kts | 320° |
| 2026-05-05 06:38 | 52.12857 | 3.41704 | 38008 ft | 446 kts | 320° |
| 2026-05-05 06:39 | 52.17811 | 3.35584 | 38009 ft | 446 kts | 320° |
| 2026-05-05 06:39 | 52.22727 | 3.29508 | 38013 ft | 446 kts | 320° |
| 2026-05-05 06:40 | 52.27675 | 3.23377 | 38019 ft | 447 kts | 320° |
| 2026-05-05 06:40 | 52.32624 | 3.17225 | 38016 ft | 447 kts | 320° |
| 2026-05-05 06:41 | 52.37573 | 3.11061 | 38023 ft | 447 kts | 320° |
| 2026-05-05 06:41 | 52.42523 | 3.04868 | 38027 ft | 447 kts | 320° |
| 2026-05-05 06:42 | 52.47472 | 2.98656 | 38024 ft | 447 kts | 320° |
| 2026-05-05 06:42 | 52.52414 | 2.92438 | 38032 ft | 448 kts | 320° |
| 2026-05-05 06:43 | 52.57360 | 2.86204 | 38027 ft | 448 kts | 320° |
| 2026-05-05 06:43 | 52.62304 | 2.79948 | 38029 ft | 449 kts | 320° |
| 2026-05-05 06:44 | 52.67229 | 2.73706 | 38032 ft | 449 kts | 320° |
| 2026-05-05 06:44 | 52.72176 | 2.67413 | 38028 ft | 449 kts | 320° |
| 2026-05-05 06:45 | 52.77120 | 2.61112 | 38038 ft | 449 kts | 320° |
| 2026-05-05 06:45 | 52.82064 | 2.54774 | 38031 ft | 449 kts | 320° |
| 2026-05-05 06:46 | 52.87000 | 2.48436 | 38038 ft | 449 kts | 320° |
| 2026-05-05 06:46 | 52.91934 | 2.42076 | 38034 ft | 449 kts | 320° |
| 2026-05-05 06:47 | 52.96859 | 2.35706 | 38035 ft | 449 kts | 320° |
| 2026-05-05 06:47 | 53.01787 | 2.29328 | 38040 ft | 449 kts | 320° |
| 2026-05-05 06:48 | 53.06711 | 2.22945 | 38037 ft | 449 kts | 320° |
| 2026-05-05 06:48 | 53.11595 | 2.16577 | 38036 ft | 449 kts | 320° |
| 2026-05-05 06:49 | 53.16502 | 2.10145 | 38033 ft | 449 kts | 319° |
| 2026-05-05 06:49 | 53.21414 | 2.03698 | 38044 ft | 449 kts | 320° |
| 2026-05-05 06:50 | 53.26323 | 1.97246 | 38051 ft | 449 kts | 320° |
| 2026-05-05 06:50 | 53.31255 | 1.90746 | 38047 ft | 449 kts | 320° |
| 2026-05-05 06:51 | 53.36116 | 1.84324 | 38043 ft | 448 kts | 320° |
| 2026-05-05 06:51 | 53.41009 | 1.77832 | 38042 ft | 448 kts | 320° |
| 2026-05-05 06:52 | 53.45891 | 1.71321 | 38042 ft | 448 kts | 320° |
| 2026-05-05 06:52 | 53.50768 | 1.64807 | 38041 ft | 448 kts | 320° |
| 2026-05-05 06:53 | 53.55645 | 1.58285 | 38040 ft | 447 kts | 320° |
| 2026-05-05 06:53 | 53.60512 | 1.51749 | 38044 ft | 447 kts | 320° |
| 2026-05-05 06:54 | 53.65363 | 1.45208 | 38039 ft | 447 kts | 320° |
| 2026-05-05 06:54 | 53.70215 | 1.38647 | 38037 ft | 447 kts | 320° |
| 2026-05-05 06:55 | 53.75057 | 1.32087 | 38046 ft | 446 kts | 319° |
| 2026-05-05 06:55 | 53.79865 | 1.25565 | 38042 ft | 445 kts | 319° |
| 2026-05-05 06:56 | 53.84685 | 1.18992 | 38034 ft | 445 kts | 319° |
| 2026-05-05 06:56 | 53.89497 | 1.12407 | 38035 ft | 444 kts | 319° |
| 2026-05-05 06:57 | 53.94307 | 1.05806 | 38035 ft | 444 kts | 319° |
| 2026-05-05 06:57 | 53.99107 | 0.99201 | 38034 ft | 444 kts | 319° |
| 2026-05-05 06:58 | 54.03894 | 0.92590 | 38038 ft | 443 kts | 319° |
| 2026-05-05 06:58 | 54.08675 | 0.85973 | 38033 ft | 442 kts | 319° |
| 2026-05-05 06:59 | 54.13442 | 0.79355 | 38030 ft | 441 kts | 319° |
| 2026-05-05 06:59 | 54.18199 | 0.72726 | 38029 ft | 441 kts | 319° |
| 2026-05-05 07:00 | 54.22951 | 0.66080 | 38028 ft | 441 kts | 319° |
| 2026-05-05 07:00 | 54.27695 | 0.59430 | 38045 ft | 440 kts | 319° |
| 2026-05-05 07:01 | 54.32394 | 0.52826 | 38035 ft | 439 kts | 319° |
| 2026-05-05 07:01 | 54.37114 | 0.46173 | 38031 ft | 438 kts | 319° |
| 2026-05-05 07:02 | 54.41817 | 0.39530 | 38033 ft | 438 kts | 319° |
| 2026-05-05 07:02 | 54.46512 | 0.32870 | 38031 ft | 437 kts | 318° |
| 2026-05-05 07:03 | 54.51193 | 0.26195 | 38044 ft | 437 kts | 318° |
| 2026-05-05 07:03 | 54.55867 | 0.19517 | 38040 ft | 436 kts | 318° |
| 2026-05-05 07:04 | 54.60534 | 0.12849 | 38037 ft | 436 kts | 318° |
| 2026-05-05 07:04 | 54.65159 | 0.06201 | 38032 ft | 435 kts | 318° |
| 2026-05-05 07:05 | 54.69809 | -0.00501 | 38038 ft | 435 kts | 318° |
| 2026-05-05 07:05 | 54.74457 | -0.07217 | 38032 ft | 435 kts | 317° |
| 2026-05-05 07:06 | 54.79095 | -0.13953 | 38045 ft | 435 kts | 317° |
| 2026-05-05 07:06 | 54.83722 | -0.20701 | 38041 ft | 434 kts | 317° |
| 2026-05-05 07:07 | 54.88350 | -0.27444 | 38036 ft | 434 kts | 317° |
| 2026-05-05 07:07 | 54.92969 | -0.34189 | 38035 ft | 433 kts | 317° |
| 2026-05-05 07:08 | 54.97572 | -0.40951 | 38034 ft | 433 kts | 317° |
| 2026-05-05 07:08 | 55.02165 | -0.47726 | 38056 ft | 433 kts | 317° |
| 2026-05-05 07:09 | 55.06767 | -0.54516 | 38041 ft | 432 kts | 317° |
| 2026-05-05 07:09 | 55.11353 | -0.61296 | 38038 ft | 432 kts | 317° |
| 2026-05-05 07:10 | 55.15929 | -0.68093 | 38042 ft | 431 kts | 317° |
| 2026-05-05 07:10 | 55.20496 | -0.74912 | 38042 ft | 431 kts | 317° |
| 2026-05-05 07:11 | 55.25053 | -0.81730 | 38023 ft | 431 kts | 317° |
| 2026-05-05 07:11 | 55.29575 | -0.88514 | 38051 ft | 430 kts | 316° |
| 2026-05-05 07:12 | 55.34121 | -0.95357 | 38034 ft | 430 kts | 316° |
| 2026-05-05 07:12 | 55.38658 | -1.02215 | 38035 ft | 430 kts | 316° |
| 2026-05-05 07:13 | 55.43193 | -1.09086 | 38046 ft | 430 kts | 316° |
| 2026-05-05 07:13 | 55.47694 | -1.15926 | 38042 ft | 430 kts | 316° |
| 2026-05-05 07:14 | 55.52228 | -1.22813 | 38061 ft | 430 kts | 316° |
| 2026-05-05 07:14 | 55.56750 | -1.29729 | 38049 ft | 430 kts | 316° |
| 2026-05-05 07:15 | 55.61264 | -1.36668 | 38051 ft | 429 kts | 316° |
| 2026-05-05 07:15 | 55.65755 | -1.43586 | 38049 ft | 429 kts | 316° |
| 2026-05-05 07:16 | 55.70254 | -1.50525 | 38049 ft | 429 kts | 316° |
| 2026-05-05 07:16 | 55.74752 | -1.57475 | 38057 ft | 429 kts | 316° |
| 2026-05-05 07:17 | 55.79243 | -1.64438 | 38047 ft | 426 kts | 316° |
| 2026-05-05 07:17 | 55.83693 | -1.71370 | 38031 ft | 425 kts | 316° |
| 2026-05-05 07:18 | 55.88128 | -1.78326 | 38036 ft | 425 kts | 316° |
| 2026-05-05 07:18 | 55.92573 | -1.85311 | 38041 ft | 426 kts | 316° |
| 2026-05-05 07:19 | 55.97024 | -1.92312 | 38048 ft | 427 kts | 316° |
| 2026-05-05 07:19 | 56.01452 | -1.99290 | 38051 ft | 427 kts | 316° |
| 2026-05-05 07:20 | 56.05906 | -2.06337 | 38057 ft | 427 kts | 315° |
| 2026-05-05 07:20 | 56.10360 | -2.13404 | 38058 ft | 428 kts | 315° |
| 2026-05-05 07:21 | 56.14084 | -2.19330 | 38060 ft | 428 kts | 315° |
| 2026-05-05 07:21 | 56.18484 | -2.26378 | 38060 ft | 428 kts | 315° |
| 2026-05-05 07:22 | 56.22921 | -2.33492 | 38061 ft | 428 kts | 315° |
| 2026-05-05 07:22 | 56.27357 | -2.40640 | 38063 ft | 428 kts | 315° |
| 2026-05-05 07:23 | 56.31773 | -2.47760 | 38056 ft | 424 kts | 315° |
| 2026-05-05 07:23 | 56.36173 | -2.54868 | 38056 ft | 424 kts | 315° |
| 2026-05-05 07:24 | 56.40562 | -2.61999 | 38055 ft | 425 kts | 315° |
| 2026-05-05 07:24 | 56.44947 | -2.69148 | 38057 ft | 425 kts | 315° |
| 2026-05-05 07:25 | 56.49329 | -2.76310 | 38059 ft | 425 kts | 315° |
| 2026-05-05 07:25 | 56.53710 | -2.83498 | 38079 ft | 425 kts | 315° |
| 2026-05-05 07:26 | 56.58068 | -2.90654 | 38080 ft | 425 kts | 315° |
| 2026-05-05 07:26 | 56.62455 | -2.97884 | 38077 ft | 426 kts | 315° |
| 2026-05-05 07:27 | 56.66837 | -3.05149 | 38070 ft | 426 kts | 315° |
| 2026-05-05 07:27 | 56.71215 | -3.12437 | 38072 ft | 426 kts | 315° |
| 2026-05-05 07:28 | 56.75595 | -3.19730 | 38066 ft | 427 kts | 315° |
| 2026-05-05 07:28 | 56.79980 | -3.27043 | 38092 ft | 427 kts | 315° |
| 2026-05-05 07:29 | 56.84325 | -3.34327 | 38059 ft | 422 kts | 315° |
| 2026-05-05 07:29 | 56.88614 | -3.41563 | 38063 ft | 422 kts | 315° |
| 2026-05-05 07:30 | 56.92932 | -3.48850 | 38075 ft | 422 kts | 315° |
| 2026-05-05 07:30 | 56.99392 | -3.59815 | 38080 ft | 422 kts | 315° |
| 2026-05-05 07:31 | 57.03707 | -3.67155 | 38084 ft | 423 kts | 314° |
| 2026-05-05 07:31 | 57.08010 | -3.74499 | 38101 ft | 422 kts | 314° |
| 2026-05-05 07:32 | 57.12304 | -3.81871 | 38103 ft | 422 kts | 314° |
| 2026-05-05 07:32 | 57.16592 | -3.89252 | 38096 ft | 422 kts | 314° |
| 2026-05-05 07:33 | 57.20876 | -3.96655 | 38099 ft | 422 kts | 314° |
| 2026-05-05 07:33 | 57.25155 | -4.04063 | 38109 ft | 422 kts | 314° |
| 2026-05-05 07:34 | 57.29400 | -4.11438 | 38118 ft | 422 kts | 314° |
| 2026-05-05 07:34 | 57.33690 | -4.18905 | 38085 ft | 418 kts | 314° |
| 2026-05-05 07:35 | 57.37882 | -4.26239 | 38087 ft | 417 kts | 314° |
| 2026-05-05 07:35 | 57.42101 | -4.33642 | 38099 ft | 418 kts | 314° |
| 2026-05-05 07:36 | 57.46319 | -4.41081 | 38108 ft | 419 kts | 314° |
| 2026-05-05 07:36 | 57.50573 | -4.48598 | 38111 ft | 419 kts | 314° |
| 2026-05-05 07:37 | 57.54770 | -4.56030 | 38122 ft | 419 kts | 314° |
| 2026-05-05 07:37 | 57.58984 | -4.63515 | 38122 ft | 418 kts | 314° |
| 2026-05-05 07:38 | 57.63178 | -4.70981 | 38117 ft | 416 kts | 313° |
| 2026-05-05 07:38 | 57.67360 | -4.78478 | 38119 ft | 417 kts | 313° |
| 2026-05-05 07:39 | 57.71540 | -4.85994 | 38121 ft | 417 kts | 313° |
| 2026-05-05 07:39 | 57.75716 | -4.93520 | 38130 ft | 417 kts | 313° |
| 2026-05-05 07:40 | 57.79887 | -5.01060 | 38129 ft | 416 kts | 313° |
| 2026-05-05 07:40 | 57.84041 | -5.08605 | 38139 ft | 415 kts | 313° |
| 2026-05-05 07:41 | 57.88182 | -5.16143 | 38135 ft | 414 kts | 313° |
| 2026-05-05 07:41 | 57.92285 | -5.23641 | 38136 ft | 414 kts | 313° |
| 2026-05-05 07:42 | 57.96417 | -5.31222 | 38139 ft | 414 kts | 313° |
| 2026-05-05 07:42 | 58.00548 | -5.38805 | 38139 ft | 414 kts | 313° |
| 2026-05-05 07:43 | 58.04670 | -5.46408 | 38152 ft | 415 kts | 313° |
| 2026-05-05 07:43 | 58.08788 | -5.54049 | 38167 ft | 415 kts | 313° |
| 2026-05-05 07:44 | 58.12907 | -5.61707 | 38157 ft | 415 kts | 313° |
| 2026-05-05 07:44 | 58.17028 | -5.69388 | 38165 ft | 416 kts | 313° |
| 2026-05-05 07:45 | 58.21143 | -5.77093 | 38164 ft | 416 kts | 312° |
| 2026-05-05 07:45 | 58.25224 | -5.84758 | 38166 ft | 416 kts | 312° |
| 2026-05-05 07:46 | 58.29334 | -5.92491 | 38165 ft | 416 kts | 312° |
| 2026-05-05 07:46 | 58.33436 | -6.00247 | 38166 ft | 416 kts | 312° |
| 2026-05-05 07:47 | 58.37520 | -6.07997 | 38167 ft | 413 kts | 312° |
| 2026-05-05 07:47 | 58.41587 | -6.15729 | 38164 ft | 413 kts | 312° |
| 2026-05-05 07:48 | 58.45648 | -6.23492 | 38174 ft | 414 kts | 312° |
| 2026-05-05 07:48 | 58.49713 | -6.31300 | 38173 ft | 414 kts | 312° |
| 2026-05-05 07:49 | 58.53772 | -6.39106 | 38177 ft | 415 kts | 312° |
| 2026-05-05 07:49 | 58.57843 | -6.46952 | 38172 ft | 415 kts | 312° |
| 2026-05-05 07:50 | 58.61898 | -6.54805 | 38177 ft | 415 kts | 312° |
| 2026-05-05 07:50 | 58.65959 | -6.62714 | 38182 ft | 415 kts | 312° |
| 2026-05-05 07:51 | 58.70010 | -6.70618 | 38179 ft | 415 kts | 312° |
| 2026-05-05 07:51 | 58.74038 | -6.78494 | 38183 ft | 415 kts | 311° |
| 2026-05-05 07:52 | 58.78067 | -6.86427 | 38190 ft | 414 kts | 311° |
| 2026-05-05 07:52 | 58.82098 | -6.94367 | 38186 ft | 414 kts | 311° |
| 2026-05-05 07:53 | 58.86126 | -7.02330 | 38203 ft | 413 kts | 311° |
| 2026-05-05 07:53 | 58.90138 | -7.10299 | 38192 ft | 413 kts | 311° |
| 2026-05-05 07:54 | 58.94147 | -7.18289 | 38178 ft | 414 kts | 311° |
| 2026-05-05 07:54 | 58.98159 | -7.26301 | 38193 ft | 414 kts | 311° |
| 2026-05-05 07:55 | 59.02160 | -7.34342 | 38203 ft | 414 kts | 311° |
| 2026-05-05 07:55 | 59.06147 | -7.42380 | 38188 ft | 413 kts | 311° |
| 2026-05-05 07:56 | 59.10138 | -7.50432 | 38213 ft | 413 kts | 311° |
| 2026-05-05 07:56 | 59.14123 | -7.58506 | 38204 ft | 413 kts | 311° |
| 2026-05-05 07:57 | 59.18071 | -7.66544 | 38198 ft | 413 kts | 311° |
| 2026-05-05 07:57 | 59.22057 | -7.74691 | 38184 ft | 413 kts | 311° |
| 2026-05-05 07:58 | 59.25992 | -7.82754 | 38190 ft | 413 kts | 311° |
| 2026-05-05 07:58 | 59.29954 | -7.90899 | 38191 ft | 413 kts | 311° |
| 2026-05-05 07:59 | 59.33905 | -7.99075 | 38193 ft | 413 kts | 311° |
| 2026-05-05 07:59 | 59.37849 | -8.07252 | 38206 ft | 412 kts | 310° |
| 2026-05-05 08:00 | 59.41779 | -8.15422 | 38200 ft | 412 kts | 310° |
| 2026-05-05 08:00 | 59.45711 | -8.23625 | 38199 ft | 412 kts | 310° |
| 2026-05-05 08:01 | 59.49625 | -8.31843 | 38200 ft | 412 kts | 310° |
| 2026-05-05 08:01 | 59.53548 | -8.40075 | 38207 ft | 412 kts | 310° |
| 2026-05-05 08:02 | 59.57462 | -8.48336 | 38206 ft | 412 kts | 310° |
| 2026-05-05 08:02 | 59.61367 | -8.56631 | 38234 ft | 412 kts | 310° |
| 2026-05-05 08:03 | 59.65264 | -8.64918 | 38226 ft | 412 kts | 310° |
| 2026-05-05 08:03 | 59.69140 | -8.73175 | 38219 ft | 411 kts | 310° |
| 2026-05-05 08:04 | 59.73051 | -8.81550 | 38216 ft | 411 kts | 310° |
| 2026-05-05 08:04 | 59.76920 | -8.89867 | 38215 ft | 411 kts | 310° |
| 2026-05-05 08:05 | 59.80791 | -8.98222 | 38214 ft | 411 kts | 310° |
| 2026-05-05 08:05 | 59.84663 | -9.06594 | 38214 ft | 411 kts | 310° |
| 2026-05-05 08:06 | 59.88524 | -9.14972 | 38218 ft | 410 kts | 310° |
| 2026-05-05 08:06 | 59.92363 | -9.23357 | 38216 ft | 409 kts | 310° |
| 2026-05-05 08:07 | 59.96196 | -9.31772 | 38208 ft | 410 kts | 310° |
| 2026-05-05 08:07 | 60.00031 | -9.40200 | 38217 ft | 410 kts | 310° |
| 2026-05-05 08:08 | 60.03219 | -9.47215 | 38221 ft | 410 kts | 309° |
| 2026-05-05 08:08 | 60.07050 | -9.55699 | 38221 ft | 410 kts | 309° |
| 2026-05-05 08:09 | 60.10870 | -9.64204 | 38231 ft | 411 kts | 309° |
| 2026-05-05 08:09 | 60.14684 | -9.72699 | 38224 ft | 408 kts | 309° |
| 2026-05-05 08:10 | 60.18480 | -9.81182 | 38227 ft | 408 kts | 309° |
| 2026-05-05 08:10 | 60.22269 | -9.89701 | 38227 ft | 409 kts | 309° |
| 2026-05-05 08:11 | 60.26056 | -9.98237 | 38227 ft | 409 kts | 309° |
| 2026-05-05 08:11 | 60.29836 | -10.06796 | 38229 ft | 409 kts | 309° |
| 2026-05-05 08:12 | 60.33606 | -10.15379 | 38207 ft | 409 kts | 309° |
| 2026-05-05 08:12 | 60.37377 | -10.23971 | 38245 ft | 409 kts | 309° |
| 2026-05-05 08:13 | 60.41123 | -10.32544 | 38241 ft | 409 kts | 309° |
| 2026-05-05 08:13 | 60.44885 | -10.41187 | 38235 ft | 409 kts | 309° |
| 2026-05-05 08:14 | 60.48637 | -10.49860 | 38240 ft | 409 kts | 309° |
| 2026-05-05 08:14 | 60.52391 | -10.58554 | 38233 ft | 409 kts | 309° |
| 2026-05-05 08:15 | 60.56140 | -10.67258 | 38242 ft | 409 kts | 309° |
| 2026-05-05 08:15 | 60.59888 | -10.75991 | 38241 ft | 409 kts | 309° |
| 2026-05-05 08:16 | 60.63624 | -10.84725 | 38230 ft | 407 kts | 309° |
| 2026-05-05 08:16 | 60.67333 | -10.93442 | 38226 ft | 407 kts | 308° |
| 2026-05-05 08:17 | 60.71038 | -11.02201 | 38209 ft | 408 kts | 309° |
| 2026-05-05 08:17 | 60.74727 | -11.10961 | 38220 ft | 409 kts | 308° |
| 2026-05-05 08:18 | 60.78447 | -11.19804 | 38228 ft | 410 kts | 309° |
| 2026-05-05 08:18 | 60.82165 | -11.28648 | 38237 ft | 410 kts | 308° |
| 2026-05-05 08:19 | 60.85881 | -11.37550 | 38282 ft | 410 kts | 308° |
| 2026-05-05 08:19 | 60.89567 | -11.46454 | 38248 ft | 408 kts | 308° |
| 2026-05-05 08:20 | 60.93246 | -11.55350 | 38247 ft | 409 kts | 308° |
| 2026-05-05 08:20 | 60.96905 | -11.64218 | 38251 ft | 409 kts | 308° |
| 2026-05-05 08:21 | 61.00586 | -11.73170 | 38260 ft | 410 kts | 308° |
| 2026-05-05 08:21 | 61.04264 | -11.82177 | 38233 ft | 410 kts | 308° |
| 2026-05-05 08:22 | 61.07933 | -11.91195 | 38243 ft | 410 kts | 308° |
| 2026-05-05 08:22 | 61.11598 | -12.00231 | 38252 ft | 410 kts | 308° |
| 2026-05-05 08:23 | 61.15258 | -12.09279 | 38264 ft | 410 kts | 308° |
| 2026-05-05 08:23 | 61.18919 | -12.18361 | 38262 ft | 410 kts | 308° |
| 2026-05-05 08:24 | 61.22576 | -12.27469 | 38266 ft | 410 kts | 308° |
| 2026-05-05 08:24 | 61.26219 | -12.36607 | 38271 ft | 410 kts | 308° |
| 2026-05-05 08:25 | 61.29837 | -12.45699 | 38265 ft | 411 kts | 308° |
| 2026-05-05 08:25 | 61.33478 | -12.54858 | 38270 ft | 411 kts | 308° |
| 2026-05-05 08:26 | 61.37101 | -12.64016 | 38254 ft | 407 kts | 307° |
| 2026-05-05 08:26 | 61.40691 | -12.73173 | 38221 ft | 408 kts | 307° |
| 2026-05-05 08:27 | 61.44282 | -12.82346 | 38239 ft | 409 kts | 307° |
| 2026-05-05 08:27 | 61.47882 | -12.91583 | 38253 ft | 410 kts | 307° |
| 2026-05-05 08:28 | 61.51486 | -13.00858 | 38263 ft | 410 kts | 307° |
| 2026-05-05 08:28 | 61.55079 | -13.10150 | 38264 ft | 410 kts | 307° |
| 2026-05-05 08:29 | 61.58672 | -13.19469 | 38270 ft | 411 kts | 307° |
| 2026-05-05 08:30 | 61.64034 | -13.33437 | 38266 ft | 409 kts | 307° |
| 2026-05-05 08:30 | 61.67592 | -13.42784 | 38269 ft | 409 kts | 307° |
| 2026-05-05 08:31 | 61.71124 | -13.52095 | 38274 ft | 410 kts | 307° |
| 2026-05-05 08:31 | 61.74678 | -13.61496 | 38272 ft | 410 kts | 307° |
| 2026-05-05 08:32 | 61.78235 | -13.70929 | 38250 ft | 410 kts | 307° |
| 2026-05-05 08:32 | 61.81783 | -13.80398 | 38263 ft | 411 kts | 307° |
| 2026-05-05 08:33 | 61.85322 | -13.89887 | 38270 ft | 409 kts | 307° |
| 2026-05-05 08:33 | 61.88845 | -13.99334 | 38268 ft | 409 kts | 307° |
| 2026-05-05 08:34 | 61.92365 | -14.08839 | 38267 ft | 410 kts | 307° |
| 2026-05-05 08:34 | 61.95873 | -14.18372 | 38274 ft | 410 kts | 307° |
| 2026-05-05 08:35 | 61.99385 | -14.27934 | 38271 ft | 410 kts | 306° |
| 2026-05-05 08:35 | 62.02898 | -14.37520 | 38273 ft | 410 kts | 306° |
| 2026-05-05 08:36 | 62.06401 | -14.47130 | 38275 ft | 410 kts | 306° |
| 2026-05-05 08:36 | 62.09861 | -14.56655 | 38258 ft | 408 kts | 306° |
| 2026-05-05 08:37 | 62.13324 | -14.66256 | 38234 ft | 408 kts | 306° |
| 2026-05-05 08:37 | 62.16782 | -14.75894 | 38252 ft | 409 kts | 306° |
| 2026-05-05 08:38 | 62.20245 | -14.85566 | 38260 ft | 409 kts | 306° |
| 2026-05-05 08:38 | 62.23702 | -14.95267 | 38267 ft | 409 kts | 306° |
| 2026-05-05 08:39 | 62.27156 | -15.04983 | 38268 ft | 410 kts | 306° |
| 2026-05-05 08:39 | 62.30612 | -15.14724 | 38307 ft | 410 kts | 306° |
| 2026-05-05 08:40 | 62.34036 | -15.24457 | 38247 ft | 407 kts | 306° |
| 2026-05-05 08:40 | 62.37454 | -15.34198 | 38251 ft | 408 kts | 306° |
| 2026-05-05 08:41 | 62.40868 | -15.43976 | 38259 ft | 408 kts | 306° |
| 2026-05-05 08:41 | 62.44254 | -15.53720 | 38262 ft | 409 kts | 306° |
| 2026-05-05 08:42 | 62.47664 | -15.63568 | 38265 ft | 409 kts | 306° |
| 2026-05-05 08:42 | 62.51068 | -15.73451 | 38265 ft | 409 kts | 306° |
| 2026-05-05 08:43 | 62.54470 | -15.83351 | 38290 ft | 409 kts | 306° |
| 2026-05-05 08:43 | 62.57854 | -15.93255 | 38255 ft | 408 kts | 305° |
| 2026-05-05 08:44 | 62.61232 | -16.03186 | 38258 ft | 409 kts | 305° |
| 2026-05-05 08:44 | 62.64609 | -16.13148 | 38261 ft | 409 kts | 305° |
| 2026-05-05 08:45 | 62.67981 | -16.23141 | 38260 ft | 410 kts | 305° |
| 2026-05-05 08:45 | 62.71323 | -16.33097 | 38262 ft | 410 kts | 305° |
| 2026-05-05 08:46 | 62.74683 | -16.43146 | 38263 ft | 410 kts | 305° |
| 2026-05-05 08:46 | 62.78037 | -16.53221 | 38277 ft | 410 kts | 305° |
| 2026-05-05 08:47 | 62.81374 | -16.63292 | 38228 ft | 408 kts | 305° |
| 2026-05-05 08:47 | 62.84698 | -16.73388 | 38247 ft | 409 kts | 305° |
| 2026-05-05 08:48 | 62.88023 | -16.83518 | 38251 ft | 409 kts | 305° |
| 2026-05-05 08:48 | 62.91343 | -16.93664 | 38256 ft | 409 kts | 305° |
| 2026-05-05 08:49 | 62.94656 | -17.03840 | 38265 ft | 410 kts | 305° |
| 2026-05-05 08:49 | 62.97963 | -17.14044 | 38264 ft | 410 kts | 305° |
| 2026-05-05 08:50 | 63.01264 | -17.24261 | 38272 ft | 409 kts | 305° |
| 2026-05-05 08:50 | 63.04540 | -17.34453 | 38259 ft | 408 kts | 305° |
| 2026-05-05 08:51 | 63.07806 | -17.44677 | 38272 ft | 408 kts | 305° |
| 2026-05-05 08:51 | 63.11067 | -17.54929 | 38270 ft | 408 kts | 304° |
| 2026-05-05 08:52 | 63.14322 | -17.65217 | 38261 ft | 408 kts | 304° |
| 2026-05-05 08:52 | 63.17572 | -17.75507 | 38268 ft | 407 kts | 304° |
| 2026-05-05 08:53 | 63.20788 | -17.85736 | 38279 ft | 407 kts | 304° |
| 2026-05-05 08:53 | 63.24015 | -17.96041 | 38303 ft | 407 kts | 304° |
| 2026-05-05 08:54 | 63.27234 | -18.06370 | 38295 ft | 407 kts | 304° |
| 2026-05-05 08:54 | 63.30438 | -18.16747 | 38287 ft | 407 kts | 304° |
| 2026-05-05 08:55 | 63.33625 | -18.27109 | 38292 ft | 406 kts | 304° |
| 2026-05-05 08:55 | 63.36817 | -18.37503 | 38290 ft | 406 kts | 304° |
| 2026-05-05 08:56 | 63.40001 | -18.47928 | 38294 ft | 407 kts | 304° |
| 2026-05-05 08:56 | 63.42639 | -18.56620 | 38300 ft | 407 kts | 304° |
| 2026-05-05 08:57 | 63.46327 | -18.68804 | 38265 ft | 407 kts | 304° |
| 2026-05-05 08:57 | 63.49497 | -18.79275 | 38287 ft | 406 kts | 304° |
| 2026-05-05 08:58 | 63.52145 | -18.88087 | 38302 ft | 407 kts | 304° |
| 2026-05-05 08:58 | 63.55270 | -18.98556 | 38306 ft | 406 kts | 303° |
| 2026-05-05 08:59 | 63.58406 | -19.09112 | 38308 ft | 406 kts | 303° |
| 2026-05-05 08:59 | 63.61534 | -19.19707 | 38311 ft | 406 kts | 303° |
| 2026-05-05 09:00 | 63.64654 | -19.30316 | 38312 ft | 406 kts | 303° |
| 2026-05-05 09:00 | 63.67765 | -19.40935 | 38342 ft | 406 kts | 303° |
| 2026-05-05 09:01 | 63.70879 | -19.51584 | 38330 ft | 407 kts | 303° |
| 2026-05-05 09:01 | 63.73992 | -19.62282 | 38320 ft | 408 kts | 303° |
| 2026-05-05 09:02 | 63.77096 | -19.73008 | 38320 ft | 408 kts | 303° |
| 2026-05-05 09:02 | 63.80193 | -19.83769 | 38299 ft | 407 kts | 303° |
| 2026-05-05 09:03 | 63.83251 | -19.94466 | 38313 ft | 407 kts | 303° |
| 2026-05-05 09:03 | 63.86319 | -20.05239 | 38320 ft | 407 kts | 303° |
| 2026-05-05 09:04 | 63.89381 | -20.16025 | 38322 ft | 406 kts | 303° |
| 2026-05-05 09:04 | 63.92436 | -20.26863 | 38334 ft | 407 kts | 302° |
| 2026-05-05 09:05 | 63.94537 | -20.38754 | 38332 ft | 411 kts | 280° |
| 2026-05-05 09:05 | 63.94663 | -20.51836 | 38330 ft | 414 kts | 273° |
| 2026-05-05 09:06 | 63.94650 | -20.64950 | 38330 ft | 415 kts | 273° |
| 2026-05-05 09:06 | 63.94628 | -20.78084 | 38288 ft | 415 kts | 273° |
| 2026-05-05 09:07 | 63.94596 | -20.91213 | 38301 ft | 415 kts | 273° |
| 2026-05-05 09:07 | 63.94547 | -21.04267 | 38311 ft | 415 kts | 273° |
| 2026-05-05 09:08 | 63.94485 | -21.17411 | 38325 ft | 416 kts | 273° |
| 2026-05-05 09:08 | 63.94422 | -21.30564 | 38330 ft | 416 kts | 273° |
| 2026-05-05 09:09 | 63.94343 | -21.43635 | 38313 ft | 402 kts | 272° |
| 2026-05-05 09:09 | 63.94294 | -21.49884 | 38313 ft | 388 kts | 272° |
| 2026-05-05 09:09 | 63.94243 | -21.55912 | 38313 ft | 374 kts | 273° |
| 2026-05-05 09:09 | 63.94191 | -21.61715 | 38278 ft | 361 kts | 273° |
| 2026-05-05 09:10 | 63.94139 | -21.67348 | 38316 ft | 354 kts | 273° |
| 2026-05-05 09:10 | 63.94041 | -21.78501 | 38320 ft | 352 kts | 273° |
| 2026-05-05 09:11 | 63.94833 | -21.89142 | 38320 ft | 340 kts | 306° |
| 2026-05-05 09:11 | 63.96548 | -21.92800 | 38346 ft | 344 kts | 330° |
| 2026-05-05 09:11 | 63.98860 | -21.94352 | 38332 ft | 355 kts | 350° |
| 2026-05-05 09:12 | 64.03846 | -21.93789 | 38330 ft | 365 kts | 359° |
| 2026-05-05 09:12 | 64.08907 | -21.92796 | 38328 ft | 363 kts | 355° |
| 2026-05-05 09:13 | 64.13909 | -21.93369 | 38329 ft | 358 kts | 348° |
| 2026-05-05 09:13 | 64.18851 | -21.94704 | 38329 ft | 356 kts | 344° |
| 2026-05-05 09:14 | 64.23520 | -21.98067 | 38328 ft | 347 kts | 327° |
| 2026-05-05 09:14 | 64.25314 | -22.01626 | 38329 ft | 341 kts | 304° |
| 2026-05-05 09:14 | 64.26483 | -22.06397 | 38331 ft | 343 kts | 299° |
| 2026-05-05 09:15 | 64.28875 | -22.15904 | 38332 ft | 343 kts | 302° |
| 2026-05-05 09:15 | 64.31339 | -22.25221 | 38337 ft | 342 kts | 302° |
| 2026-05-05 09:16 | 64.33775 | -22.34643 | 38339 ft | 342 kts | 301° |
| 2026-05-05 09:16 | 64.36234 | -22.44078 | 38342 ft | 342 kts | 302° |
| 2026-05-05 09:17 | 64.38807 | -22.53329 | 38340 ft | 342 kts | 311° |
| 2026-05-05 09:17 | 64.40626 | -22.56836 | 38351 ft | 345 kts | 329° |
| 2026-05-05 09:17 | 64.42905 | -22.58675 | 38352 ft | 353 kts | 348° |
| 2026-05-05 09:17 | 64.45392 | -22.58444 | 38352 ft | 367 kts | 8° |
| 2026-05-05 09:18 | 64.47764 | -22.56000 | 38354 ft | 384 kts | 30° |
| 2026-05-05 09:18 | 64.49638 | -22.51432 | 38355 ft | 403 kts | 53° |
| 2026-05-05 09:18 | 64.50637 | -22.45236 | 38354 ft | 420 kts | 78° |
| 2026-05-05 09:18 | 64.50544 | -22.38393 | 38355 ft | 432 kts | 102° |
| 2026-05-05 09:19 | 64.49339 | -22.31993 | 38355 ft | 437 kts | 127° |
| 2026-05-05 09:19 | 64.47205 | -22.27068 | 38351 ft | 434 kts | 151° |
| 2026-05-05 09:19 | 64.44478 | -22.24366 | 38350 ft | 423 kts | 175° |
| 2026-05-05 09:19 | 64.41608 | -22.24247 | 38344 ft | 407 kts | 198° |
| 2026-05-05 09:20 | 64.38933 | -22.26103 | 38342 ft | 399 kts | 210° |
| 2026-05-05 09:20 | 64.33558 | -22.29547 | 38338 ft | 419 kts | 181° |
| 2026-05-05 09:20 | 64.30731 | -22.27989 | 38339 ft | 431 kts | 157° |
| 2026-05-05 09:21 | 64.28246 | -22.23948 | 38335 ft | 437 kts | 132° |
| 2026-05-05 09:21 | 64.26608 | -22.18194 | 38334 ft | 435 kts | 108° |
| 2026-05-05 09:21 | 64.26001 | -22.11479 | 38330 ft | 426 kts | 84° |
| 2026-05-05 09:21 | 64.26521 | -22.04930 | 38329 ft | 411 kts | 59° |
| 2026-05-05 09:22 | 64.28034 | -21.99587 | 38354 ft | 391 kts | 35° |
| 2026-05-05 09:22 | 64.30237 | -21.96277 | 38377 ft | 370 kts | 11° |
| 2026-05-05 09:22 | 64.32720 | -21.95134 | 38332 ft | 361 kts | 357° |
| 2026-05-05 09:23 | 64.37632 | -21.96380 | 38338 ft | 353 kts | 340° |
| 2026-05-05 09:23 | 64.42548 | -21.97741 | 38345 ft | 364 kts | 358° |
| 2026-05-05 09:24 | 64.47516 | -21.98345 | 38341 ft | 352 kts | 337° |
| 2026-05-05 09:24 | 64.49675 | -22.00889 | 38355 ft | 346 kts | 321° |
| 2026-05-05 09:24 | 64.51407 | -22.04718 | 38353 ft | 345 kts | 308° |
| 2026-05-05 09:25 | 64.54141 | -22.13880 | 38349 ft | 346 kts | 302° |
| 2026-05-05 09:25 | 64.56523 | -22.23597 | 38350 ft | 347 kts | 295° |
| 2026-05-05 09:25 | 64.57270 | -22.28922 | 38374 ft | 348 kts | 284° |
| 2026-05-05 09:26 | 64.57535 | -22.34536 | 38350 ft | 352 kts | 273° |
| 2026-05-05 09:26 | 64.57277 | -22.40240 | 38361 ft | 358 kts | 262° |
| 2026-05-05 09:26 | 64.56471 | -22.45774 | 38359 ft | 366 kts | 250° |
| 2026-05-05 09:26 | 64.55100 | -22.50845 | 38369 ft | 376 kts | 236° |
| 2026-05-05 09:27 | 64.53211 | -22.55067 | 38366 ft | 388 kts | 223° |
| 2026-05-05 09:27 | 64.50837 | -22.58202 | 38340 ft | 400 kts | 208° |
| 2026-05-05 09:27 | 64.48112 | -22.59897 | 38352 ft | 412 kts | 192° |
| 2026-05-05 09:27 | 64.45212 | -22.59916 | 38352 ft | 423 kts | 176° |
| 2026-05-05 09:28 | 64.42350 | -22.58112 | 38353 ft | 432 kts | 159° |
| 2026-05-05 09:28 | 64.39765 | -22.54508 | 38354 ft | 438 kts | 141° |
| 2026-05-05 09:28 | 64.37690 | -22.49357 | 38348 ft | 439 kts | 122° |
| 2026-05-05 09:29 | 64.34625 | -22.37145 | 38343 ft | 441 kts | 120° |
| 2026-05-05 09:29 | 64.32265 | -22.24277 | 38337 ft | 433 kts | 93° |
| 2026-05-05 09:29 | 64.32246 | -22.17515 | 38337 ft | 423 kts | 75° |
| 2026-05-05 09:30 | 64.33043 | -22.11106 | 38337 ft | 412 kts | 58° |
| 2026-05-05 09:30 | 64.34518 | -22.05484 | 38337 ft | 400 kts | 43° |
| 2026-05-05 09:30 | 64.36440 | -22.01091 | 38377 ft | 389 kts | 30° |
| 2026-05-05 09:30 | 64.38715 | -21.97900 | 38335 ft | 378 kts | 16° |
| 2026-05-05 09:31 | 64.41176 | -21.96082 | 38340 ft | 368 kts | 4° |
| 2026-05-05 09:31 | 64.43697 | -21.95623 | 38340 ft | 360 kts | 352° |
| 2026-05-05 09:31 | 64.46148 | -21.96477 | 38343 ft | 354 kts | 340° |
| 2026-05-05 09:31 | 64.48422 | -21.98533 | 38353 ft | 349 kts | 328° |
| 2026-05-05 09:32 | 64.50425 | -22.01648 | 38351 ft | 346 kts | 317° |
| 2026-05-05 09:32 | 64.53502 | -22.10181 | 38351 ft | 346 kts | 304° |
| 2026-05-05 09:33 | 64.56020 | -22.19726 | 38354 ft | 346 kts | 301° |
| 2026-05-05 09:33 | 64.57705 | -22.30185 | 38361 ft | 350 kts | 281° |
| 2026-05-05 09:33 | 64.57837 | -22.35853 | 38360 ft | 354 kts | 270° |
| 2026-05-05 09:34 | 64.57446 | -22.41549 | 38359 ft | 361 kts | 259° |
| 2026-05-05 09:34 | 64.56505 | -22.46943 | 38363 ft | 369 kts | 246° |
| 2026-05-05 09:34 | 64.55003 | -22.51861 | 38361 ft | 379 kts | 233° |
| 2026-05-05 09:34 | 64.52986 | -22.55931 | 38361 ft | 391 kts | 220° |
| 2026-05-05 09:35 | 64.50532 | -22.58817 | 38348 ft | 402 kts | 205° |
| 2026-05-05 09:35 | 64.44845 | -22.59925 | 38352 ft | 425 kts | 173° |
| 2026-05-05 09:35 | 64.42012 | -22.57821 | 38351 ft | 432 kts | 156° |
| 2026-05-05 09:36 | 64.39489 | -22.53982 | 38356 ft | 437 kts | 138° |
| 2026-05-05 09:36 | 64.37508 | -22.48682 | 38345 ft | 437 kts | 120° |
| 2026-05-05 09:36 | 64.34475 | -22.36489 | 38339 ft | 439 kts | 121° |
| 2026-05-05 09:37 | 64.33022 | -22.30317 | 38338 ft | 437 kts | 109° |
| 2026-05-05 09:37 | 64.32237 | -22.23611 | 38337 ft | 430 kts | 91° |
| 2026-05-05 09:37 | 64.32315 | -22.16912 | 38338 ft | 420 kts | 73° |
| 2026-05-05 09:37 | 64.33200 | -22.10618 | 38336 ft | 408 kts | 56° |
| 2026-05-05 09:38 | 64.34717 | -22.05220 | 38336 ft | 396 kts | 41° |
| 2026-05-05 09:38 | 64.36690 | -22.00923 | 38369 ft | 386 kts | 28° |
| 2026-05-05 09:38 | 64.38985 | -21.97896 | 38337 ft | 375 kts | 15° |
| 2026-05-05 09:38 | 64.41453 | -21.96270 | 38341 ft | 365 kts | 2° |
| 2026-05-05 09:39 | 64.43957 | -21.96017 | 38340 ft | 357 kts | 349° |
| 2026-05-05 09:39 | 64.46381 | -21.97046 | 38341 ft | 351 kts | 338° |
| 2026-05-05 09:39 | 64.48607 | -21.99252 | 38350 ft | 347 kts | 327° |
| 2026-05-05 09:39 | 64.50552 | -22.02512 | 38350 ft | 344 kts | 315° |
| 2026-05-05 09:40 | 64.53542 | -22.11160 | 38350 ft | 344 kts | 303° |
| 2026-05-05 09:40 | 64.56026 | -22.20685 | 38355 ft | 345 kts | 301° |
| 2026-05-05 09:41 | 64.57035 | -22.25732 | 38313 ft | 346 kts | 290° |
| 2026-05-05 09:41 | 64.57575 | -22.31197 | 38364 ft | 348 kts | 279° |
| 2026-05-05 09:41 | 64.57145 | -22.42431 | 38364 ft | 360 kts | 257° |
| 2026-05-05 09:42 | 64.56093 | -22.47864 | 38367 ft | 369 kts | 244° |
| 2026-05-05 09:42 | 64.54506 | -22.52644 | 38355 ft | 380 kts | 231° |
| 2026-05-05 09:42 | 64.52441 | -22.56465 | 38354 ft | 391 kts | 217° |
| 2026-05-05 09:42 | 64.49930 | -22.59089 | 38350 ft | 403 kts | 202° |
| 2026-05-05 09:43 | 64.47133 | -22.60194 | 38353 ft | 415 kts | 186° |
| 2026-05-05 09:43 | 64.44231 | -22.59569 | 38352 ft | 425 kts | 170° |
| 2026-05-05 09:43 | 64.41440 | -22.57121 | 38353 ft | 433 kts | 153° |
| 2026-05-05 09:43 | 64.39019 | -22.52977 | 38346 ft | 437 kts | 135° |
| 2026-05-05 09:44 | 64.37171 | -22.47421 | 38345 ft | 437 kts | 117° |
| 2026-05-05 09:44 | 64.35700 | -22.41261 | 38343 ft | 438 kts | 119° |
| 2026-05-05 09:44 | 64.32795 | -22.28936 | 38340 ft | 436 kts | 106° |
| 2026-05-05 09:45 | 64.32183 | -22.22172 | 38337 ft | 428 kts | 88° |
| 2026-05-05 09:45 | 64.32442 | -22.15450 | 38339 ft | 417 kts | 69° |
| 2026-05-05 09:45 | 64.33483 | -22.09332 | 38338 ft | 405 kts | 53° |
| 2026-05-05 09:45 | 64.35118 | -22.04168 | 38339 ft | 394 kts | 38° |
| 2026-05-05 09:46 | 64.37175 | -22.00160 | 38356 ft | 383 kts | 25° |
| 2026-05-05 09:46 | 64.39491 | -21.97474 | 38339 ft | 373 kts | 12° |
| 2026-05-05 09:46 | 64.41975 | -21.96105 | 38340 ft | 364 kts | 360° |
| 2026-05-05 09:46 | 64.44476 | -21.96098 | 38346 ft | 356 kts | 347° |
| 2026-05-05 09:47 | 64.46859 | -21.97391 | 38345 ft | 350 kts | 335° |
| 2026-05-05 09:47 | 64.49037 | -21.99859 | 38351 ft | 346 kts | 324° |
| 2026-05-05 09:47 | 64.50908 | -22.03330 | 38351 ft | 344 kts | 313° |
| 2026-05-05 09:47 | 64.52447 | -22.07578 | 38352 ft | 344 kts | 306° |
| 2026-05-05 09:48 | 64.54645 | -22.15291 | 38351 ft | 345 kts | 302° |
| 2026-05-05 09:48 | 64.56924 | -22.25099 | 38310 ft | 346 kts | 291° |
| 2026-05-05 09:49 | 64.57628 | -22.36177 | 38361 ft | 353 kts | 270° |
| 2026-05-05 09:49 | 64.57215 | -22.41843 | 38369 ft | 360 kts | 258° |
| 2026-05-05 09:49 | 64.55802 | -22.48925 | 38368 ft | 372 kts | 242° |
| 2026-05-05 09:50 | 64.52663 | -22.56117 | 38359 ft | 390 kts | 218° |
| 2026-05-05 09:50 | 64.50188 | -22.58876 | 38351 ft | 402 kts | 204° |
| 2026-05-05 09:50 | 64.47446 | -22.60138 | 38352 ft | 414 kts | 188° |
| 2026-05-05 09:51 | 64.44510 | -22.59697 | 38352 ft | 424 kts | 172° |
| 2026-05-05 09:51 | 64.41741 | -22.57471 | 38353 ft | 432 kts | 154° |
| 2026-05-05 09:51 | 64.39266 | -22.53502 | 38346 ft | 436 kts | 137° |
| 2026-05-05 09:51 | 64.37343 | -22.48084 | 38345 ft | 436 kts | 119° |
| 2026-05-05 09:52 | 64.34296 | -22.35927 | 38345 ft | 438 kts | 121° |
| 2026-05-05 09:52 | 64.32903 | -22.29741 | 38339 ft | 436 kts | 108° |
| 2026-05-05 09:52 | 64.32205 | -22.23006 | 38337 ft | 429 kts | 90° |
| 2026-05-05 09:53 | 64.32366 | -22.16247 | 38338 ft | 418 kts | 71° |
| 2026-05-05 09:53 | 64.33326 | -22.10025 | 38338 ft | 406 kts | 54° |
| 2026-05-05 09:53 | 64.34898 | -22.04748 | 38336 ft | 395 kts | 40° |
| 2026-05-05 09:53 | 64.36916 | -22.00586 | 38367 ft | 384 kts | 27° |
| 2026-05-05 09:54 | 64.39236 | -21.97714 | 38338 ft | 374 kts | 13° |
| 2026-05-05 09:54 | 64.41711 | -21.96229 | 38340 ft | 365 kts | 1° |
| 2026-05-05 09:54 | 64.44217 | -21.96113 | 38346 ft | 357 kts | 348° |
| 2026-05-05 09:54 | 64.46617 | -21.97283 | 38347 ft | 351 kts | 336° |
| 2026-05-05 09:55 | 64.48817 | -21.99626 | 38353 ft | 347 kts | 325° |
| 2026-05-05 09:55 | 64.50730 | -22.03004 | 38351 ft | 344 kts | 314° |
| 2026-05-05 09:55 | 64.53668 | -22.11747 | 38356 ft | 345 kts | 303° |
| 2026-05-05 09:56 | 64.56127 | -22.21229 | 38350 ft | 345 kts | 300° |
| 2026-05-05 09:56 | 64.57088 | -22.26351 | 38320 ft | 346 kts | 289° |
| 2026-05-05 09:56 | 64.57572 | -22.31904 | 38359 ft | 349 kts | 278° |
| 2026-05-05 09:57 | 64.57029 | -22.43137 | 38370 ft | 360 kts | 256° |
| 2026-05-05 09:57 | 64.55928 | -22.48433 | 38368 ft | 369 kts | 243° |
| 2026-05-05 09:57 | 64.54280 | -22.53100 | 38368 ft | 380 kts | 229° |
| 2026-05-05 09:58 | 64.52135 | -22.56832 | 38322 ft | 391 kts | 216° |
| 2026-05-05 09:58 | 64.49594 | -22.59286 | 38353 ft | 403 kts | 200° |
| 2026-05-05 09:58 | 64.46784 | -22.60206 | 38353 ft | 414 kts | 185° |
| 2026-05-05 09:58 | 64.43893 | -22.59357 | 38352 ft | 424 kts | 168° |
| 2026-05-05 09:59 | 64.41150 | -22.56703 | 38353 ft | 431 kts | 150° |
| 2026-05-05 09:59 | 64.38788 | -22.52408 | 38347 ft | 435 kts | 133° |
| 2026-05-05 09:59 | 64.37015 | -22.46772 | 38345 ft | 434 kts | 116° |
| 2026-05-05 09:59 | 64.35562 | -22.40651 | 38343 ft | 436 kts | 119° |
| 2026-05-05 10:00 | 64.32715 | -22.28337 | 38341 ft | 433 kts | 104° |
| 2026-05-05 10:00 | 64.32184 | -22.21585 | 38339 ft | 425 kts | 85° |
| 2026-05-05 10:00 | 64.32531 | -22.14938 | 38340 ft | 414 kts | 67° |
| 2026-05-05 10:01 | 64.33626 | -22.09017 | 38340 ft | 402 kts | 51° |
| 2026-05-05 10:01 | 64.35305 | -22.03996 | 38338 ft | 390 kts | 37° |
| 2026-05-05 10:01 | 64.37381 | -22.00163 | 38349 ft | 380 kts | 24° |
| 2026-05-05 10:01 | 64.39734 | -21.97613 | 38339 ft | 370 kts | 11° |
| 2026-05-05 10:02 | 64.42222 | -21.96433 | 38344 ft | 361 kts | 358° |
| 2026-05-05 10:02 | 64.44697 | -21.96613 | 38346 ft | 354 kts | 346° |
| 2026-05-05 10:02 | 64.47054 | -21.98057 | 38347 ft | 348 kts | 334° |
| 2026-05-05 10:02 | 64.49181 | -22.00651 | 38353 ft | 344 kts | 322° |
| 2026-05-05 10:03 | 64.50997 | -22.04245 | 38353 ft | 343 kts | 311° |
| 2026-05-05 10:03 | 64.52496 | -22.08556 | 38353 ft | 343 kts | 306° |
| 2026-05-05 10:03 | 64.55066 | -22.17881 | 38353 ft | 343 kts | 301° |
| 2026-05-05 10:04 | 64.57083 | -22.27915 | 38378 ft | 345 kts | 286° |
| 2026-05-05 10:04 | 64.57299 | -22.39116 | 38362 ft | 354 kts | 264° |
| 2026-05-05 10:05 | 64.56608 | -22.44673 | 38367 ft | 362 kts | 252° |
| 2026-05-05 10:05 | 64.55349 | -22.49822 | 38373 ft | 372 kts | 239° |
| 2026-05-05 10:05 | 64.53546 | -22.54249 | 38368 ft | 383 kts | 225° |
| 2026-05-05 10:05 | 64.51305 | -22.57589 | 38335 ft | 394 kts | 211° |
| 2026-05-05 10:06 | 64.48667 | -22.59620 | 38357 ft | 407 kts | 196° |
| 2026-05-05 10:06 | 64.45813 | -22.60024 | 38354 ft | 418 kts | 180° |
| 2026-05-05 10:06 | 64.42948 | -22.58628 | 38355 ft | 427 kts | 162° |
| 2026-05-05 10:06 | 64.40297 | -22.55431 | 38355 ft | 433 kts | 145° |
| 2026-05-05 10:07 | 64.38104 | -22.50654 | 38345 ft | 435 kts | 127° |
| 2026-05-05 10:07 | 64.36521 | -22.44732 | 38344 ft | 435 kts | 117° |
| 2026-05-05 10:07 | 64.33470 | -22.32631 | 38339 ft | 436 kts | 115° |
| 2026-05-05 10:08 | 64.32429 | -22.26118 | 38338 ft | 431 kts | 97° |
| 2026-05-05 10:08 | 64.32212 | -22.19325 | 38338 ft | 422 kts | 79° |
| 2026-05-05 10:08 | 64.32829 | -22.12820 | 38336 ft | 410 kts | 62° |
| 2026-05-05 10:08 | 64.34146 | -22.07117 | 38336 ft | 398 kts | 46° |
| 2026-05-05 10:09 | 64.35983 | -22.02488 | 38368 ft | 386 kts | 32° |
| 2026-05-05 10:09 | 64.38181 | -21.99080 | 38336 ft | 376 kts | 19° |
| 2026-05-05 10:09 | 64.40599 | -21.97025 | 38341 ft | 366 kts | 6° |
| 2026-05-05 10:09 | 64.43096 | -21.96330 | 38342 ft | 358 kts | 354° |
| 2026-05-05 10:10 | 64.45545 | -21.96959 | 38346 ft | 352 kts | 341° |
| 2026-05-05 10:10 | 64.47803 | -21.98794 | 38345 ft | 347 kts | 330° |
| 2026-05-05 10:10 | 64.49831 | -22.01736 | 38354 ft | 344 kts | 319° |
| 2026-05-05 10:10 | 64.51527 | -22.05618 | 38353 ft | 342 kts | 308° |
| 2026-05-05 10:11 | 64.54245 | -22.14707 | 38353 ft | 343 kts | 302° |
| 2026-05-05 10:11 | 64.56587 | -22.24392 | 38307 ft | 344 kts | 293° |
| 2026-05-05 10:12 | 64.57460 | -22.35336 | 38354 ft | 350 kts | 272° |
| 2026-05-05 10:12 | 64.57130 | -22.40995 | 38355 ft | 357 kts | 260° |
| 2026-05-05 10:12 | 64.56248 | -22.46441 | 38355 ft | 366 kts | 248° |
| 2026-05-05 10:13 | 64.54810 | -22.51403 | 38360 ft | 376 kts | 235° |
| 2026-05-05 10:13 | 64.52848 | -22.55541 | 38368 ft | 387 kts | 221° |
| 2026-05-05 10:13 | 64.50439 | -22.58496 | 38354 ft | 399 kts | 206° |
| 2026-05-05 10:13 | 64.47707 | -22.59976 | 38356 ft | 411 kts | 190° |
| 2026-05-05 10:14 | 64.44819 | -22.59741 | 38356 ft | 421 kts | 174° |
| 2026-05-05 10:14 | 64.41998 | -22.57705 | 38355 ft | 429 kts | 156° |
| 2026-05-05 10:14 | 64.39485 | -22.53922 | 38357 ft | 434 kts | 139° |
| 2026-05-05 10:14 | 64.37506 | -22.48667 | 38345 ft | 435 kts | 120° |
| 2026-05-05 10:15 | 64.34508 | -22.36616 | 38342 ft | 436 kts | 121° |
| 2026-05-05 10:15 | 64.33055 | -22.30488 | 38341 ft | 435 kts | 110° |
| 2026-05-05 10:15 | 64.32260 | -22.23835 | 38337 ft | 428 kts | 92° |
| 2026-05-05 10:16 | 64.32327 | -22.17065 | 38337 ft | 418 kts | 73° |
| 2026-05-05 10:16 | 64.33210 | -22.10809 | 38339 ft | 406 kts | 56° |
| 2026-05-05 10:16 | 64.34725 | -22.05444 | 38336 ft | 394 kts | 41° |
| 2026-05-05 10:16 | 64.36698 | -22.01191 | 38377 ft | 383 kts | 28° |
| 2026-05-05 10:17 | 64.38985 | -21.98219 | 38334 ft | 373 kts | 14° |
| 2026-05-05 10:17 | 64.41447 | -21.96625 | 38342 ft | 364 kts | 1° |
| 2026-05-05 10:17 | 64.43941 | -21.96403 | 38340 ft | 356 kts | 349° |
| 2026-05-05 10:17 | 64.46346 | -21.97473 | 38342 ft | 350 kts | 338° |
| 2026-05-05 10:18 | 64.48556 | -21.99722 | 38349 ft | 344 kts | 326° |
| 2026-05-05 10:18 | 64.50468 | -22.02996 | 38349 ft | 342 kts | 315° |
| 2026-05-05 10:18 | 64.53406 | -22.11624 | 38353 ft | 341 kts | 303° |
| 2026-05-05 10:19 | 64.55861 | -22.21076 | 38352 ft | 342 kts | 301° |
| 2026-05-05 10:19 | 64.56853 | -22.26108 | 38319 ft | 342 kts | 290° |
| 2026-05-05 10:19 | 64.57380 | -22.31528 | 38370 ft | 346 kts | 279° |
| 2026-05-05 10:20 | 64.57419 | -22.37138 | 38362 ft | 351 kts | 268° |
| 2026-05-05 10:20 | 64.56933 | -22.42673 | 38361 ft | 358 kts | 257° |
| 2026-05-05 10:20 | 64.55893 | -22.47989 | 38352 ft | 367 kts | 244° |
| 2026-05-05 10:20 | 64.54303 | -22.52714 | 38354 ft | 377 kts | 231° |
| 2026-05-05 10:21 | 64.52208 | -22.56512 | 38321 ft | 389 kts | 217° |
| 2026-05-05 10:21 | 64.49703 | -22.59054 | 38355 ft | 401 kts | 202° |
| 2026-05-05 10:21 | 64.46917 | -22.60087 | 38354 ft | 412 kts | 186° |
| 2026-05-05 10:21 | 64.44036 | -22.59385 | 38355 ft | 422 kts | 169° |
| 2026-05-05 10:22 | 64.41281 | -22.56872 | 38355 ft | 429 kts | 152° |
| 2026-05-05 10:22 | 64.38901 | -22.52689 | 38347 ft | 433 kts | 134° |
| 2026-05-05 10:22 | 64.37105 | -22.47137 | 38342 ft | 433 kts | 117° |
| 2026-05-05 10:22 | 64.35639 | -22.41052 | 38344 ft | 434 kts | 119° |
| 2026-05-05 10:23 | 64.32770 | -22.28822 | 38339 ft | 432 kts | 105° |
| 2026-05-05 10:23 | 64.32199 | -22.22098 | 38336 ft | 424 kts | 86° |
| 2026-05-05 10:23 | 64.32500 | -22.15451 | 38336 ft | 413 kts | 68° |
| 2026-05-05 10:24 | 64.33567 | -22.09427 | 38335 ft | 401 kts | 52° |
| 2026-05-05 10:24 | 64.35195 | -22.04441 | 38335 ft | 389 kts | 37° |
| 2026-05-05 10:24 | 64.37257 | -22.00555 | 38359 ft | 379 kts | 24° |
| 2026-05-05 10:24 | 64.39595 | -21.97957 | 38336 ft | 369 kts | 11° |
| 2026-05-05 10:25 | 64.42067 | -21.96722 | 38341 ft | 360 kts | 358° |
| 2026-05-05 10:25 | 64.44539 | -21.96834 | 38336 ft | 352 kts | 346° |
| 2026-05-05 10:25 | 64.46889 | -21.98228 | 38342 ft | 347 kts | 334° |
| 2026-05-05 10:25 | 64.49013 | -22.00783 | 38355 ft | 343 kts | 323° |
| 2026-05-05 10:26 | 64.50827 | -22.04329 | 38349 ft | 341 kts | 311° |
| 2026-05-05 10:26 | 64.52319 | -22.08607 | 38346 ft | 341 kts | 306° |
| 2026-05-05 10:26 | 64.54877 | -22.17899 | 38350 ft | 342 kts | 301° |
| 2026-05-05 10:27 | 64.56912 | -22.27853 | 38356 ft | 343 kts | 287° |
| 2026-05-05 10:27 | 64.57292 | -22.33354 | 38350 ft | 347 kts | 276° |
| 2026-05-05 10:27 | 64.57162 | -22.38995 | 38361 ft | 353 kts | 265° |
| 2026-05-05 10:28 | 64.56490 | -22.44533 | 38363 ft | 361 kts | 252° |
| 2026-05-05 10:28 | 64.55275 | -22.49616 | 38364 ft | 370 kts | 240° |
| 2026-05-05 10:28 | 64.53511 | -22.54066 | 38369 ft | 381 kts | 226° |
| 2026-05-05 10:28 | 64.51269 | -22.57481 | 38338 ft | 392 kts | 212° |
| 2026-05-05 10:29 | 64.48644 | -22.59532 | 38357 ft | 405 kts | 196° |
| 2026-05-05 10:29 | 64.45803 | -22.59942 | 38354 ft | 416 kts | 180° |
| 2026-05-05 10:29 | 64.42943 | -22.58565 | 38355 ft | 425 kts | 163° |
| 2026-05-05 10:29 | 64.40298 | -22.55399 | 38355 ft | 431 kts | 145° |
| 2026-05-05 10:30 | 64.38116 | -22.50636 | 38346 ft | 434 kts | 127° |
| 2026-05-05 10:30 | 64.36503 | -22.44748 | 38347 ft | 434 kts | 118° |
| 2026-05-05 10:30 | 64.33432 | -22.32732 | 38339 ft | 434 kts | 114° |
| 2026-05-05 10:31 | 64.32423 | -22.26236 | 38338 ft | 429 kts | 97° |
| 2026-05-05 10:31 | 64.32231 | -22.19469 | 38336 ft | 420 kts | 79° |
| 2026-05-05 10:31 | 64.32854 | -22.13010 | 38336 ft | 408 kts | 62° |
| 2026-05-05 10:31 | 64.34162 | -22.07320 | 38334 ft | 396 kts | 46° |
| 2026-05-05 10:32 | 64.35936 | -22.02755 | 38324 ft | 362 kts | 32° |
| 2026-05-05 10:32 | 64.37898 | -21.99575 | 38273 ft | 332 kts | 19° |
| 2026-05-05 10:32 | 64.39961 | -21.97641 | 38126 ft | 308 kts | 6° |
| 2026-05-05 10:32 | 64.41964 | -21.96924 | 38006 ft | 284 kts | 353° |
| 2026-05-05 10:33 | 64.43875 | -21.97301 | 37878 ft | 261 kts | 340° |
| 2026-05-05 10:33 | 64.45516 | -21.98631 | 37744 ft | 239 kts | 327° |
| 2026-05-05 10:33 | 64.46804 | -22.00703 | 37591 ft | 219 kts | 312° |
| 2026-05-05 10:33 | 64.47680 | -22.03375 | 37394 ft | 200 kts | 294° |
| 2026-05-05 10:34 | 64.47997 | -22.06328 | 36916 ft | 167 kts | 263° |
| 2026-05-05 10:34 | 64.47778 | -22.08652 | 33576 ft | 146 kts | 244° |
| 2026-05-05 10:34 | 64.47066 | -22.10381 | 27395 ft | 166 kts | 259° |
| 2026-05-05 10:34 | 64.45995 | -22.14804 | 22858 ft | 389 kts | 248° |
| 2026-05-05 10:35 | 64.44593 | -22.20225 | 21018 ft | 399 kts | 245° |
| 2026-05-05 10:35 | 64.42977 | -22.25596 | 19408 ft | 411 kts | 239° |
| 2026-05-05 10:35 | 64.41122 | -22.30637 | 18109 ft | 412 kts | 233° |
| 2026-05-05 10:35 | 64.39024 | -22.35162 | 16791 ft | 412 kts | 226° |
| 2026-05-05 10:36 | 64.36697 | -22.39014 | 15556 ft | 413 kts | 218° |
| 2026-05-05 10:36 | 64.34149 | -22.42114 | 14401 ft | 414 kts | 209° |
| 2026-05-05 10:36 | 64.31450 | -22.44346 | 13181 ft | 412 kts | 200° |
| 2026-05-05 10:36 | 64.28659 | -22.45652 | 12013 ft | 407 kts | 191° |
| 2026-05-05 10:37 | 64.25852 | -22.46009 | 10896 ft | 401 kts | 181° |
| 2026-05-05 10:37 | 64.23092 | -22.45417 | 9794 ft | 396 kts | 172° |
| 2026-05-05 10:37 | 64.20440 | -22.43846 | 8769 ft | 391 kts | 162° |
| 2026-05-05 10:37 | 64.17984 | -22.41314 | 7907 ft | 383 kts | 152° |
| 2026-05-05 10:38 | 64.16482 | -22.39245 | 7370 ft | 378 kts | 147° |
| 2026-05-05 10:38 | 64.14404 | -22.35697 | 6624 ft | 366 kts | 139° |
| 2026-05-05 10:38 | 64.12084 | -22.30331 | 5618 ft | 351 kts | 127° |
| 2026-05-05 10:38 | 64.10723 | -22.25834 | 4901 ft | 338 kts | 117° |
| 2026-05-05 10:39 | 64.10018 | -22.22623 | 4404 ft | 329 kts | 110° |
| 2026-05-05 10:39 | 64.09324 | -22.17754 | 3721 ft | 317 kts | 100° |
| 2026-05-05 10:39 | 64.09030 | -22.12866 | 3048 ft | 305 kts | 91° |
| 2026-05-05 10:39 | 64.09091 | -22.08148 | 2407 ft | 294 kts | 81° |
| 2026-05-05 10:40 | 64.09437 | -22.03690 | 1894 ft | 280 kts | 77° |
| 2026-05-05 10:40 | 64.09986 | -21.99599 | 1394 ft | 266 kts | 60° |
| 2026-05-05 10:40 | 64.11168 | -21.97029 | 1144 ft | 210 kts | 23° |
| 2026-05-05 10:40 | 64.12401 | -21.94961 | 238 ft | 218 kts | 34° |
| 2026-05-05 10:41 | 64.13025 | -21.93917 | 51 ft | 0 kts | 40° |